sensor_id;sensor_type;location;lat;lon;timestamp;P1;durP1;ratioP1;P2;durP2;ratioP2
66721;SDS011;53633;49.932;10.884;2022-12-10T00:02:26;29.20;;;12.60;;
66721;SDS011;53633;49.932;10.884;2022-12-10T00:04:52;32.50;;;12.63;;
66721;SDS011;53633;49.932;10.884;2022-12-10T00:07:20;29.88;;;11.98;;
66721;SDS011;53633;49.932;10.884;2022-12-10T00:09:48;28.40;;;13.20;;
66721;SDS011;53633;49.932;10.884;2022-12-10T00:12:15;33.58;;;14.57;;
66721;SDS011;53633;49.932;10.884;2022-12-10T00:14:41;34.30;;;14.13;;
66721;SDS011;53633;49.932;10.884;2022-12-10T00:17:08;33.55;;;14.93;;
66721;SDS011;53633;49.932;10.884;2022-12-10T00:19:38;34.13;;;14.38;;
66721;SDS011;53633;49.932;10.884;2022-12-10T00:22:05;30.27;;;13.70;;
66721;SDS011;53633;49.932;10.884;2022-12-10T00:24:31;30.05;;;13.85;;
66721;SDS011;53633;49.932;10.884;2022-12-10T00:26:59;33.88;;;13.48;;
66721;SDS011;53633;49.932;10.884;2022-12-10T00:29:26;37.58;;;14.15;;
66721;SDS011;53633;49.932;10.884;2022-12-10T00:31:53;31.75;;;12.90;;
66721;SDS011;53633;49.932;10.884;2022-12-10T00:34:19;30.17;;;13.23;;
66721;SDS011;53633;49.932;10.884;2022-12-10T00:36:46;32.70;;;12.90;;
66721;SDS011;53633;49.932;10.884;2022-12-10T00:39:15;32.42;;;14.25;;
66721;SDS011;53633;49.932;10.884;2022-12-10T00:41:43;32.38;;;13.13;;
66721;SDS011;53633;49.932;10.884;2022-12-10T00:44:11;32.78;;;13.55;;
66721;SDS011;53633;49.932;10.884;2022-12-10T00:46:38;35.03;;;14.40;;
66721;SDS011;53633;49.932;10.884;2022-12-10T00:49:05;30.13;;;12.88;;
66721;SDS011;53633;49.932;10.884;2022-12-10T00:51:32;36.05;;;13.80;;
66721;SDS011;53633;49.932;10.884;2022-12-10T00:53:58;30.27;;;12.85;;
66721;SDS011;53633;49.932;10.884;2022-12-10T00:56:26;30.95;;;13.80;;
66721;SDS011;53633;49.932;10.884;2022-12-10T00:58:54;32.47;;;14.23;;
66721;SDS011;53633;49.932;10.884;2022-12-10T01:01:24;30.13;;;13.10;;
66721;SDS011;53633;49.932;10.884;2022-12-10T01:03:52;31.95;;;14.13;;
66721;SDS011;53633;49.932;10.884;2022-12-10T01:06:21;35.33;;;13.77;;
66721;SDS011;53633;49.932;10.884;2022-12-10T01:08:49;31.70;;;13.60;;
66721;SDS011;53633;49.932;10.884;2022-12-10T01:11:18;31.87;;;14.40;;
66721;SDS011;53633;49.932;10.884;2022-12-10T01:13:46;33.25;;;14.23;;
66721;SDS011;53633;49.932;10.884;2022-12-10T01:16:14;34.88;;;14.00;;
66721;SDS011;53633;49.932;10.884;2022-12-10T01:18:44;28.92;;;12.77;;
66721;SDS011;53633;49.932;10.884;2022-12-10T01:21:12;32.25;;;13.55;;
66721;SDS011;53633;49.932;10.884;2022-12-10T01:23:40;31.23;;;11.40;;
66721;SDS011;53633;49.932;10.884;2022-12-10T01:26:09;27.75;;;11.10;;
66721;SDS011;53633;49.932;10.884;2022-12-10T01:28:38;31.52;;;12.30;;
66721;SDS011;53633;49.932;10.884;2022-12-10T01:31:07;31.27;;;12.50;;
66721;SDS011;53633;49.932;10.884;2022-12-10T01:33:36;28.42;;;12.90;;
66721;SDS011;53633;49.932;10.884;2022-12-10T01:36:05;29.27;;;11.87;;
66721;SDS011;53633;49.932;10.884;2022-12-10T01:38:34;26.35;;;12.50;;
66721;SDS011;53633;49.932;10.884;2022-12-10T01:41:01;27.77;;;11.50;;
66721;SDS011;53633;49.932;10.884;2022-12-10T01:43:27;25.02;;;11.07;;
66721;SDS011;53633;49.932;10.884;2022-12-10T01:46:14;29.40;;;12.35;;
66721;SDS011;53633;49.932;10.884;2022-12-10T01:48:40;28.10;;;11.17;;
66721;SDS011;53633;49.932;10.884;2022-12-10T01:51:09;24.15;;;11.35;;
66721;SDS011;53633;49.932;10.884;2022-12-10T01:53:37;25.83;;;10.18;;
66721;SDS011;53633;49.932;10.884;2022-12-10T01:56:03;24.70;;;11.52;;
66721;SDS011;53633;49.932;10.884;2022-12-10T01:58:30;23.42;;;10.20;;
66721;SDS011;53633;49.932;10.884;2022-12-10T02:01:00;28.80;;;12.13;;
66721;SDS011;53633;49.932;10.884;2022-12-10T02:03:33;25.27;;;11.35;;
66721;SDS011;53633;49.932;10.884;2022-12-10T02:06:06;30.05;;;11.80;;
66721;SDS011;53633;49.932;10.884;2022-12-10T02:08:44;29.50;;;10.75;;
66721;SDS011;53633;49.932;10.884;2022-12-10T02:11:19;26.35;;;10.82;;
66721;SDS011;53633;49.932;10.884;2022-12-10T02:13:52;27.43;;;11.63;;
66721;SDS011;53633;49.932;10.884;2022-12-10T02:16:26;29.95;;;11.65;;
66721;SDS011;53633;49.932;10.884;2022-12-10T02:18:58;29.70;;;12.07;;
66721;SDS011;53633;49.932;10.884;2022-12-10T02:21:35;30.23;;;12.43;;
66721;SDS011;53633;49.932;10.884;2022-12-10T02:24:05;29.65;;;11.30;;
66721;SDS011;53633;49.932;10.884;2022-12-10T02:26:36;27.37;;;10.30;;
66721;SDS011;53633;49.932;10.884;2022-12-10T02:29:12;28.73;;;11.77;;
66721;SDS011;53633;49.932;10.884;2022-12-10T02:31:45;29.35;;;11.20;;
66721;SDS011;53633;49.932;10.884;2022-12-10T02:34:15;26.25;;;10.93;;
66721;SDS011;53633;49.932;10.884;2022-12-10T02:36:44;25.33;;;9.98;;
66721;SDS011;53633;49.932;10.884;2022-12-10T02:39:14;30.87;;;11.77;;
66721;SDS011;53633;49.932;10.884;2022-12-10T02:41:45;29.65;;;12.25;;
66721;SDS011;53633;49.932;10.884;2022-12-10T02:44:15;33.25;;;12.65;;
66721;SDS011;53633;49.932;10.884;2022-12-10T02:46:44;38.00;;;14.65;;
66721;SDS011;53633;49.932;10.884;2022-12-10T02:49:14;30.98;;;12.48;;
66721;SDS011;53633;49.932;10.884;2022-12-10T02:51:43;33.40;;;13.17;;
66721;SDS011;53633;49.932;10.884;2022-12-10T02:57:03;29.20;;;11.63;;
66721;SDS011;53633;49.932;10.884;2022-12-10T02:59:41;27.33;;;11.13;;
66721;SDS011;53633;49.932;10.884;2022-12-10T03:02:19;28.33;;;11.02;;
66721;SDS011;53633;49.932;10.884;2022-12-10T03:07:41;28.48;;;11.60;;
66721;SDS011;53633;49.932;10.884;2022-12-10T03:10:15;29.60;;;10.82;;
66721;SDS011;53633;49.932;10.884;2022-12-10T03:12:49;30.88;;;11.70;;
66721;SDS011;53633;49.932;10.884;2022-12-10T03:15:22;25.67;;;10.68;;
66721;SDS011;53633;49.932;10.884;2022-12-10T03:17:50;25.80;;;10.43;;
66721;SDS011;53633;49.932;10.884;2022-12-10T03:20:18;26.13;;;10.02;;
66721;SDS011;53633;49.932;10.884;2022-12-10T03:22:45;28.45;;;10.80;;
66721;SDS011;53633;49.932;10.884;2022-12-10T03:25:15;25.77;;;10.88;;
66721;SDS011;53633;49.932;10.884;2022-12-10T03:27:45;26.38;;;10.73;;
66721;SDS011;53633;49.932;10.884;2022-12-10T03:30:16;24.60;;;11.00;;
66721;SDS011;53633;49.932;10.884;2022-12-10T03:32:44;29.08;;;11.25;;
66721;SDS011;53633;49.932;10.884;2022-12-10T03:35:11;27.30;;;11.68;;
66721;SDS011;53633;49.932;10.884;2022-12-10T03:37:39;28.27;;;10.90;;
66721;SDS011;53633;49.932;10.884;2022-12-10T03:40:07;25.55;;;10.60;;
66721;SDS011;53633;49.932;10.884;2022-12-10T03:42:37;24.83;;;10.10;;
66721;SDS011;53633;49.932;10.884;2022-12-10T03:45:04;25.58;;;10.40;;
66721;SDS011;53633;49.932;10.884;2022-12-10T03:47:31;25.77;;;10.02;;
66721;SDS011;53633;49.932;10.884;2022-12-10T03:49:59;28.83;;;11.73;;
66721;SDS011;53633;49.932;10.884;2022-12-10T03:52:26;28.08;;;11.30;;
66721;SDS011;53633;49.932;10.884;2022-12-10T03:54:53;24.50;;;10.23;;
66721;SDS011;53633;49.932;10.884;2022-12-10T03:57:20;25.23;;;10.32;;
66721;SDS011;53633;49.932;10.884;2022-12-10T03:59:46;24.33;;;10.00;;
66721;SDS011;53633;49.932;10.884;2022-12-10T04:02:13;25.00;;;10.23;;
66721;SDS011;53633;49.932;10.884;2022-12-10T04:04:39;23.15;;;10.68;;
66721;SDS011;53633;49.932;10.884;2022-12-10T04:07:07;27.17;;;10.47;;
66721;SDS011;53633;49.932;10.884;2022-12-10T04:09:34;23.23;;;9.43;;
66721;SDS011;53633;49.932;10.884;2022-12-10T04:12:01;26.88;;;10.80;;
66721;SDS011;53633;49.932;10.884;2022-12-10T04:14:28;24.58;;;10.13;;
66721;SDS011;53633;49.932;10.884;2022-12-10T04:16:54;27.88;;;11.05;;
66721;SDS011;53633;49.932;10.884;2022-12-10T04:19:21;25.10;;;10.50;;
66721;SDS011;53633;49.932;10.884;2022-12-10T04:21:48;29.45;;;10.50;;
66721;SDS011;53633;49.932;10.884;2022-12-10T04:24:18;26.00;;;11.07;;
66721;SDS011;53633;49.932;10.884;2022-12-10T04:26:46;28.75;;;11.35;;
66721;SDS011;53633;49.932;10.884;2022-12-10T04:29:13;25.02;;;10.68;;
66721;SDS011;53633;49.932;10.884;2022-12-10T04:31:39;27.50;;;11.10;;
66721;SDS011;53633;49.932;10.884;2022-12-10T04:34:06;26.90;;;11.70;;
66721;SDS011;53633;49.932;10.884;2022-12-10T04:36:33;26.90;;;11.55;;
66721;SDS011;53633;49.932;10.884;2022-12-10T04:38:59;27.10;;;10.32;;
66721;SDS011;53633;49.932;10.884;2022-12-10T04:41:27;26.50;;;10.48;;
66721;SDS011;53633;49.932;10.884;2022-12-10T04:43:54;28.80;;;10.77;;
66721;SDS011;53633;49.932;10.884;2022-12-10T04:46:21;28.23;;;10.77;;
66721;SDS011;53633;49.932;10.884;2022-12-10T04:48:47;25.05;;;10.88;;
66721;SDS011;53633;49.932;10.884;2022-12-10T04:51:14;26.48;;;11.13;;
66721;SDS011;53633;49.932;10.884;2022-12-10T04:53:41;24.85;;;10.20;;
66721;SDS011;53633;49.932;10.884;2022-12-10T04:56:07;25.60;;;10.63;;
66721;SDS011;53633;49.932;10.884;2022-12-10T04:58:35;28.75;;;10.93;;
66721;SDS011;53633;49.932;10.884;2022-12-10T05:01:02;28.55;;;11.30;;
66721;SDS011;53633;49.932;10.884;2022-12-10T05:03:30;22.90;;;10.63;;
66721;SDS011;53633;49.932;10.884;2022-12-10T05:06:00;25.67;;;10.68;;
66721;SDS011;53633;49.932;10.884;2022-12-10T05:08:27;26.83;;;11.47;;
66721;SDS011;53633;49.932;10.884;2022-12-10T05:10:54;27.40;;;11.05;;
66721;SDS011;53633;49.932;10.884;2022-12-10T05:13:20;27.13;;;11.32;;
66721;SDS011;53633;49.932;10.884;2022-12-10T05:15:48;31.02;;;11.63;;
66721;SDS011;53633;49.932;10.884;2022-12-10T05:18:15;27.02;;;11.13;;
66721;SDS011;53633;49.932;10.884;2022-12-10T05:20:41;26.13;;;11.13;;
66721;SDS011;53633;49.932;10.884;2022-12-10T05:23:08;27.23;;;10.80;;
66721;SDS011;53633;49.932;10.884;2022-12-10T05:25:35;28.98;;;11.13;;
66721;SDS011;53633;49.932;10.884;2022-12-10T05:28:01;30.75;;;11.07;;
66721;SDS011;53633;49.932;10.884;2022-12-10T05:30:28;28.52;;;11.02;;
66721;SDS011;53633;49.932;10.884;2022-12-10T05:32:56;28.97;;;11.93;;
66721;SDS011;53633;49.932;10.884;2022-12-10T05:35:22;27.40;;;10.88;;
66721;SDS011;53633;49.932;10.884;2022-12-10T05:37:49;30.92;;;11.85;;
66721;SDS011;53633;49.932;10.884;2022-12-10T05:40:15;27.27;;;11.52;;
66721;SDS011;53633;49.932;10.884;2022-12-10T05:42:42;29.23;;;11.00;;
66721;SDS011;53633;49.932;10.884;2022-12-10T05:45:09;27.70;;;11.53;;
66721;SDS011;53633;49.932;10.884;2022-12-10T05:47:36;31.88;;;12.80;;
66721;SDS011;53633;49.932;10.884;2022-12-10T05:50:04;27.35;;;11.23;;
66721;SDS011;53633;49.932;10.884;2022-12-10T05:52:32;31.27;;;11.20;;
66721;SDS011;53633;49.932;10.884;2022-12-10T05:54:58;27.38;;;11.32;;
66721;SDS011;53633;49.932;10.884;2022-12-10T05:57:25;31.27;;;11.50;;
66721;SDS011;53633;49.932;10.884;2022-12-10T05:59:52;29.40;;;11.75;;
66721;SDS011;53633;49.932;10.884;2022-12-10T06:02:18;30.05;;;12.60;;
66721;SDS011;53633;49.932;10.884;2022-12-10T06:04:45;34.75;;;14.00;;
66721;SDS011;53633;49.932;10.884;2022-12-10T06:07:13;35.95;;;12.95;;
66721;SDS011;53633;49.932;10.884;2022-12-10T06:09:39;33.00;;;13.33;;
66721;SDS011;53633;49.932;10.884;2022-12-10T06:12:06;27.70;;;12.10;;
66721;SDS011;53633;49.932;10.884;2022-12-10T06:14:33;28.92;;;11.98;;
66721;SDS011;53633;49.932;10.884;2022-12-10T06:16:59;28.30;;;11.85;;
66721;SDS011;53633;49.932;10.884;2022-12-10T06:19:26;33.60;;;12.40;;
66721;SDS011;53633;49.932;10.884;2022-12-10T06:21:53;27.97;;;12.83;;
66721;SDS011;53633;49.932;10.884;2022-12-10T06:24:21;31.30;;;12.45;;
66721;SDS011;53633;49.932;10.884;2022-12-10T06:26:47;32.53;;;12.68;;
66721;SDS011;53633;49.932;10.884;2022-12-10T06:29:20;32.90;;;13.18;;
66721;SDS011;53633;49.932;10.884;2022-12-10T06:31:47;32.25;;;12.98;;
66721;SDS011;53633;49.932;10.884;2022-12-10T06:34:13;33.47;;;12.80;;
66721;SDS011;53633;49.932;10.884;2022-12-10T06:36:40;36.22;;;13.27;;
66721;SDS011;53633;49.932;10.884;2022-12-10T06:39:07;38.22;;;15.13;;
66721;SDS011;53633;49.932;10.884;2022-12-10T06:41:35;36.20;;;13.45;;
66721;SDS011;53633;49.932;10.884;2022-12-10T06:44:01;37.50;;;14.63;;
66721;SDS011;53633;49.932;10.884;2022-12-10T06:46:28;34.27;;;14.43;;
66721;SDS011;53633;49.932;10.884;2022-12-10T06:48:55;35.95;;;15.05;;
66721;SDS011;53633;49.932;10.884;2022-12-10T06:51:22;38.33;;;14.85;;
66721;SDS011;53633;49.932;10.884;2022-12-10T06:53:48;35.90;;;14.85;;
66721;SDS011;53633;49.932;10.884;2022-12-10T06:56:15;35.72;;;14.15;;
66721;SDS011;53633;49.932;10.884;2022-12-10T06:58:46;31.37;;;13.57;;
66721;SDS011;53633;49.932;10.884;2022-12-10T07:01:13;36.78;;;13.45;;
66721;SDS011;53633;49.932;10.884;2022-12-10T07:03:42;35.65;;;14.50;;
66721;SDS011;53633;49.932;10.884;2022-12-10T07:06:10;37.13;;;14.23;;
66721;SDS011;53633;49.932;10.884;2022-12-10T07:08:37;36.95;;;15.10;;
66721;SDS011;53633;49.932;10.884;2022-12-10T07:11:04;34.03;;;14.30;;
66721;SDS011;53633;49.932;10.884;2022-12-10T07:13:31;34.85;;;13.77;;
66721;SDS011;53633;49.932;10.884;2022-12-10T07:16:00;38.05;;;15.07;;
66721;SDS011;53633;49.932;10.884;2022-12-10T07:18:26;37.58;;;15.02;;
66721;SDS011;53633;49.932;10.884;2022-12-10T07:20:53;33.38;;;13.57;;
66721;SDS011;53633;49.932;10.884;2022-12-10T07:23:20;37.13;;;14.27;;
66721;SDS011;53633;49.932;10.884;2022-12-10T07:25:47;34.25;;;13.95;;
66721;SDS011;53633;49.932;10.884;2022-12-10T07:28:14;33.72;;;14.07;;
66721;SDS011;53633;49.932;10.884;2022-12-10T07:30:40;36.65;;;15.93;;
66721;SDS011;53633;49.932;10.884;2022-12-10T07:33:09;37.95;;;15.30;;
66721;SDS011;53633;49.932;10.884;2022-12-10T07:35:37;35.17;;;14.23;;
66721;SDS011;53633;49.932;10.884;2022-12-10T07:38:07;34.38;;;14.57;;
66721;SDS011;53633;49.932;10.884;2022-12-10T07:40:35;32.85;;;13.45;;
66721;SDS011;53633;49.932;10.884;2022-12-10T07:43:02;35.15;;;13.75;;
66721;SDS011;53633;49.932;10.884;2022-12-10T07:45:28;31.48;;;13.18;;
66721;SDS011;53633;49.932;10.884;2022-12-10T07:47:55;30.63;;;13.70;;
66721;SDS011;53633;49.932;10.884;2022-12-10T07:50:23;36.60;;;14.07;;
66721;SDS011;53633;49.932;10.884;2022-12-10T07:52:50;32.95;;;14.30;;
66721;SDS011;53633;49.932;10.884;2022-12-10T07:55:16;27.83;;;11.82;;
66721;SDS011;53633;49.932;10.884;2022-12-10T07:57:43;31.52;;;12.77;;
66721;SDS011;53633;49.932;10.884;2022-12-10T08:00:10;31.90;;;12.50;;
66721;SDS011;53633;49.932;10.884;2022-12-10T08:02:37;29.77;;;12.57;;
66721;SDS011;53633;49.932;10.884;2022-12-10T08:05:04;28.05;;;11.52;;
66721;SDS011;53633;49.932;10.884;2022-12-10T08:07:33;25.77;;;11.98;;
66721;SDS011;53633;49.932;10.884;2022-12-10T08:09:59;29.98;;;12.20;;
66721;SDS011;53633;49.932;10.884;2022-12-10T08:12:26;30.60;;;11.90;;
66721;SDS011;53633;49.932;10.884;2022-12-10T08:14:53;26.88;;;11.50;;
66721;SDS011;53633;49.932;10.884;2022-12-10T08:17:20;26.15;;;10.48;;
66721;SDS011;53633;49.932;10.884;2022-12-10T08:19:46;29.08;;;11.15;;
66721;SDS011;53633;49.932;10.884;2022-12-10T08:22:13;27.55;;;11.23;;
66721;SDS011;53633;49.932;10.884;2022-12-10T08:24:41;28.73;;;12.17;;
66721;SDS011;53633;49.932;10.884;2022-12-10T08:27:07;26.65;;;10.70;;
66721;SDS011;53633;49.932;10.884;2022-12-10T08:29:34;29.10;;;11.73;;
66721;SDS011;53633;49.932;10.884;2022-12-10T08:32:01;26.52;;;11.70;;
66721;SDS011;53633;49.932;10.884;2022-12-10T08:34:27;28.23;;;11.35;;
66721;SDS011;53633;49.932;10.884;2022-12-10T08:36:54;30.37;;;11.50;;
66721;SDS011;53633;49.932;10.884;2022-12-10T08:39:21;28.67;;;11.52;;
66721;SDS011;53633;49.932;10.884;2022-12-10T08:41:48;26.55;;;11.93;;
66721;SDS011;53633;49.932;10.884;2022-12-10T08:44:15;30.73;;;12.73;;
66721;SDS011;53633;49.932;10.884;2022-12-10T08:46:42;27.63;;;11.73;;
66721;SDS011;53633;49.932;10.884;2022-12-10T08:49:08;29.83;;;12.03;;
66721;SDS011;53633;49.932;10.884;2022-12-10T08:51:35;31.40;;;12.05;;
66721;SDS011;53633;49.932;10.884;2022-12-10T08:54:02;26.15;;;11.32;;
66721;SDS011;53633;49.932;10.884;2022-12-10T08:56:29;29.98;;;11.85;;
66721;SDS011;53633;49.932;10.884;2022-12-10T08:58:57;26.05;;;11.52;;
66721;SDS011;53633;49.932;10.884;2022-12-10T09:01:23;29.00;;;12.33;;
66721;SDS011;53633;49.932;10.884;2022-12-10T09:03:50;27.20;;;11.60;;
66721;SDS011;53633;49.932;10.884;2022-12-10T09:06:18;28.80;;;11.73;;
66721;SDS011;53633;49.932;10.884;2022-12-10T09:08:46;28.10;;;12.55;;
66721;SDS011;53633;49.932;10.884;2022-12-10T09:11:14;26.45;;;11.40;;
66721;SDS011;53633;49.932;10.884;2022-12-10T09:13:43;30.17;;;12.73;;
66721;SDS011;53633;49.932;10.884;2022-12-10T09:16:11;26.33;;;11.63;;
66721;SDS011;53633;49.932;10.884;2022-12-10T09:18:38;29.92;;;12.00;;
66721;SDS011;53633;49.932;10.884;2022-12-10T09:21:05;28.55;;;12.48;;
66721;SDS011;53633;49.932;10.884;2022-12-10T09:23:33;27.83;;;11.40;;
66721;SDS011;53633;49.932;10.884;2022-12-10T09:26:00;29.03;;;11.80;;
66721;SDS011;53633;49.932;10.884;2022-12-10T09:28:27;30.02;;;11.85;;
66721;SDS011;53633;49.932;10.884;2022-12-10T09:30:57;27.27;;;11.77;;
66721;SDS011;53633;49.932;10.884;2022-12-10T09:33:26;27.60;;;11.02;;
66721;SDS011;53633;49.932;10.884;2022-12-10T09:35:53;27.38;;;11.65;;
66721;SDS011;53633;49.932;10.884;2022-12-10T09:38:19;27.77;;;11.60;;
66721;SDS011;53633;49.932;10.884;2022-12-10T09:40:47;32.15;;;13.70;;
66721;SDS011;53633;49.932;10.884;2022-12-10T09:43:22;33.63;;;13.68;;
66721;SDS011;53633;49.932;10.884;2022-12-10T09:45:57;34.72;;;15.00;;
66721;SDS011;53633;49.932;10.884;2022-12-10T09:48:35;29.85;;;12.90;;
66721;SDS011;53633;49.932;10.884;2022-12-10T09:51:13;31.77;;;12.83;;
66721;SDS011;53633;49.932;10.884;2022-12-10T09:53:47;28.50;;;11.27;;
66721;SDS011;53633;49.932;10.884;2022-12-10T09:56:18;26.92;;;11.60;;
66721;SDS011;53633;49.932;10.884;2022-12-10T09:58:48;28.42;;;11.32;;
66721;SDS011;53633;49.932;10.884;2022-12-10T10:01:15;30.83;;;12.10;;
66721;SDS011;53633;49.932;10.884;2022-12-10T10:03:47;30.23;;;12.77;;
66721;SDS011;53633;49.932;10.884;2022-12-10T10:06:14;26.15;;;11.55;;
66721;SDS011;53633;49.932;10.884;2022-12-10T10:08:42;28.55;;;11.02;;
66721;SDS011;53633;49.932;10.884;2022-12-10T10:11:12;30.00;;;11.88;;
66721;SDS011;53633;49.932;10.884;2022-12-10T10:13:43;28.67;;;11.57;;
66721;SDS011;53633;49.932;10.884;2022-12-10T10:16:16;28.17;;;11.60;;
66721;SDS011;53633;49.932;10.884;2022-12-10T10:18:50;28.42;;;12.00;;
66721;SDS011;53633;49.932;10.884;2022-12-10T10:21:23;27.15;;;11.48;;
66721;SDS011;53633;49.932;10.884;2022-12-10T10:23:51;30.05;;;12.00;;
66721;SDS011;53633;49.932;10.884;2022-12-10T10:26:18;29.00;;;12.20;;
66721;SDS011;53633;49.932;10.884;2022-12-10T10:28:45;28.33;;;11.50;;
66721;SDS011;53633;49.932;10.884;2022-12-10T10:31:16;27.60;;;12.50;;
66721;SDS011;53633;49.932;10.884;2022-12-10T10:33:51;29.05;;;12.18;;
66721;SDS011;53633;49.932;10.884;2022-12-10T10:36:22;31.80;;;12.60;;
66721;SDS011;53633;49.932;10.884;2022-12-10T10:38:50;27.65;;;11.93;;
66721;SDS011;53633;49.932;10.884;2022-12-10T10:41:17;31.07;;;12.77;;
66721;SDS011;53633;49.932;10.884;2022-12-10T10:43:43;28.35;;;12.98;;
66721;SDS011;53633;49.932;10.884;2022-12-10T10:46:11;29.25;;;13.20;;
66721;SDS011;53633;49.932;10.884;2022-12-10T10:48:40;32.28;;;13.00;;
66721;SDS011;53633;49.932;10.884;2022-12-10T10:51:13;30.67;;;13.00;;
66721;SDS011;53633;49.932;10.884;2022-12-10T10:53:44;33.93;;;12.57;;
66721;SDS011;53633;49.932;10.884;2022-12-10T10:56:13;28.90;;;11.80;;
66721;SDS011;53633;49.932;10.884;2022-12-10T10:58:45;29.42;;;12.38;;
66721;SDS011;53633;49.932;10.884;2022-12-10T11:01:16;28.27;;;11.18;;
66721;SDS011;53633;49.932;10.884;2022-12-10T11:03:45;26.13;;;10.85;;
66721;SDS011;53633;49.932;10.884;2022-12-10T11:06:15;30.47;;;11.70;;
66721;SDS011;53633;49.932;10.884;2022-12-10T11:08:43;29.35;;;11.40;;
66721;SDS011;53633;49.932;10.884;2022-12-10T11:11:12;29.33;;;11.32;;
66721;SDS011;53633;49.932;10.884;2022-12-10T11:13:45;28.70;;;11.20;;
66721;SDS011;53633;49.932;10.884;2022-12-10T11:16:12;26.63;;;11.15;;
66721;SDS011;53633;49.932;10.884;2022-12-10T11:18:51;29.93;;;11.60;;
66721;SDS011;53633;49.932;10.884;2022-12-10T11:21:22;27.80;;;11.35;;
66721;SDS011;53633;49.932;10.884;2022-12-10T11:23:49;27.35;;;10.82;;
66721;SDS011;53633;49.932;10.884;2022-12-10T11:26:21;27.52;;;10.70;;
66721;SDS011;53633;49.932;10.884;2022-12-10T11:29:07;25.45;;;10.35;;
66721;SDS011;53633;49.932;10.884;2022-12-10T11:31:46;22.90;;;9.80;;
66721;SDS011;53633;49.932;10.884;2022-12-10T11:34:20;23.73;;;8.85;;
66721;SDS011;53633;49.932;10.884;2022-12-10T11:36:57;24.52;;;9.25;;
66721;SDS011;53633;49.932;10.884;2022-12-10T11:39:41;26.00;;;9.05;;
66721;SDS011;53633;49.932;10.884;2022-12-10T11:42:19;18.83;;;7.70;;
66721;SDS011;53633;49.932;10.884;2022-12-10T11:44:54;19.13;;;7.30;;
66721;SDS011;53633;49.932;10.884;2022-12-10T11:47:35;17.30;;;6.70;;
66721;SDS011;53633;49.932;10.884;2022-12-10T11:50:15;18.52;;;6.82;;
66721;SDS011;53633;49.932;10.884;2022-12-10T11:52:59;19.02;;;7.22;;
66721;SDS011;53633;49.932;10.884;2022-12-10T11:55:36;17.20;;;6.38;;
66721;SDS011;53633;49.932;10.884;2022-12-10T11:58:14;16.93;;;6.77;;
66721;SDS011;53633;49.932;10.884;2022-12-10T12:00:58;18.67;;;6.57;;
66721;SDS011;53633;49.932;10.884;2022-12-10T12:03:36;15.57;;;6.25;;
66721;SDS011;53633;49.932;10.884;2022-12-10T12:06:27;19.05;;;6.85;;
66721;SDS011;53633;49.932;10.884;2022-12-10T12:09:08;18.65;;;6.30;;
66721;SDS011;53633;49.932;10.884;2022-12-10T12:11:47;19.20;;;7.07;;
66721;SDS011;53633;49.932;10.884;2022-12-10T12:14:22;16.40;;;6.55;;
66721;SDS011;53633;49.932;10.884;2022-12-10T12:16:53;18.48;;;6.63;;
66721;SDS011;53633;49.932;10.884;2022-12-10T12:19:28;17.40;;;6.35;;
66721;SDS011;53633;49.932;10.884;2022-12-10T12:22:00;19.48;;;7.25;;
66721;SDS011;53633;49.932;10.884;2022-12-10T12:24:35;17.33;;;6.37;;
66721;SDS011;53633;49.932;10.884;2022-12-10T12:27:05;17.00;;;6.50;;
66721;SDS011;53633;49.932;10.884;2022-12-10T12:29:41;16.15;;;6.70;;
66721;SDS011;53633;49.932;10.884;2022-12-10T12:32:11;17.85;;;6.50;;
66721;SDS011;53633;49.932;10.884;2022-12-10T12:34:46;16.20;;;6.35;;
66721;SDS011;53633;49.932;10.884;2022-12-10T12:37:26;14.87;;;5.63;;
66721;SDS011;53633;49.932;10.884;2022-12-10T12:40:00;16.30;;;6.28;;
66721;SDS011;53633;49.932;10.884;2022-12-10T12:42:37;15.27;;;5.40;;
66721;SDS011;53633;49.932;10.884;2022-12-10T12:45:10;16.90;;;6.18;;
66721;SDS011;53633;49.932;10.884;2022-12-10T12:47:42;16.10;;;6.20;;
66721;SDS011;53633;49.932;10.884;2022-12-10T12:50:18;15.50;;;6.10;;
66721;SDS011;53633;49.932;10.884;2022-12-10T12:52:52;20.50;;;6.40;;
66721;SDS011;53633;49.932;10.884;2022-12-10T12:55:22;15.70;;;5.82;;
66721;SDS011;53633;49.932;10.884;2022-12-10T12:57:56;16.98;;;6.50;;
66721;SDS011;53633;49.932;10.884;2022-12-10T13:00:37;15.80;;;6.18;;
66721;SDS011;53633;49.932;10.884;2022-12-10T13:03:08;17.43;;;6.00;;
66721;SDS011;53633;49.932;10.884;2022-12-10T13:05:48;18.75;;;6.80;;
66721;SDS011;53633;49.932;10.884;2022-12-10T13:08:15;17.08;;;7.10;;
66721;SDS011;53633;49.932;10.884;2022-12-10T13:10:51;18.15;;;6.13;;
66721;SDS011;53633;49.932;10.884;2022-12-10T13:13:23;16.17;;;6.13;;
66721;SDS011;53633;49.932;10.884;2022-12-10T13:15:51;14.93;;;6.33;;
66721;SDS011;53633;49.932;10.884;2022-12-10T13:18:21;13.82;;;5.32;;
66721;SDS011;53633;49.932;10.884;2022-12-10T13:23:47;15.27;;;5.57;;
66721;SDS011;53633;49.932;10.884;2022-12-10T13:26:24;17.00;;;6.45;;
66721;SDS011;53633;49.932;10.884;2022-12-10T13:28:53;14.47;;;5.50;;
66721;SDS011;53633;49.932;10.884;2022-12-10T13:31:22;19.73;;;7.18;;
66721;SDS011;53633;49.932;10.884;2022-12-10T13:34:19;18.35;;;6.95;;
66721;SDS011;53633;49.932;10.884;2022-12-10T13:37:04;19.58;;;6.18;;
66721;SDS011;53633;49.932;10.884;2022-12-10T13:39:52;19.92;;;7.35;;
66721;SDS011;53633;49.932;10.884;2022-12-10T13:42:29;18.87;;;7.23;;
66721;SDS011;53633;49.932;10.884;2022-12-10T13:44:59;19.23;;;7.72;;
66721;SDS011;53633;49.932;10.884;2022-12-10T13:47:31;17.48;;;6.63;;
66721;SDS011;53633;49.932;10.884;2022-12-10T13:50:14;19.98;;;6.88;;
66721;SDS011;53633;49.932;10.884;2022-12-10T13:52:44;16.88;;;6.18;;
66721;SDS011;53633;49.932;10.884;2022-12-10T13:55:23;15.97;;;6.33;;
66721;SDS011;53633;49.932;10.884;2022-12-10T13:58:05;20.05;;;7.00;;
66721;SDS011;53633;49.932;10.884;2022-12-10T14:00:47;14.82;;;6.10;;
66721;SDS011;53633;49.932;10.884;2022-12-10T14:03:30;14.70;;;5.78;;
66721;SDS011;53633;49.932;10.884;2022-12-10T14:06:19;14.55;;;5.15;;
66721;SDS011;53633;49.932;10.884;2022-12-10T14:08:53;15.40;;;6.27;;
66721;SDS011;53633;49.932;10.884;2022-12-10T14:11:22;16.67;;;6.05;;
66721;SDS011;53633;49.932;10.884;2022-12-10T14:13:56;14.18;;;5.38;;
66721;SDS011;53633;49.932;10.884;2022-12-10T14:16:26;14.73;;;5.55;;
66721;SDS011;53633;49.932;10.884;2022-12-10T14:18:55;17.08;;;6.55;;
66721;SDS011;53633;49.932;10.884;2022-12-10T14:21:26;15.83;;;5.87;;
66721;SDS011;53633;49.932;10.884;2022-12-10T14:23:57;16.38;;;5.85;;
66721;SDS011;53633;49.932;10.884;2022-12-10T14:26:26;17.05;;;5.40;;
66721;SDS011;53633;49.932;10.884;2022-12-10T14:28:56;15.50;;;5.65;;
66721;SDS011;53633;49.932;10.884;2022-12-10T14:31:25;15.40;;;5.53;;
66721;SDS011;53633;49.932;10.884;2022-12-10T14:33:55;13.30;;;5.13;;
66721;SDS011;53633;49.932;10.884;2022-12-10T14:36:26;14.57;;;5.05;;